Time,TemperatureF,DewpointF,PressureIn,WindDirection,WindDirectionDegrees,WindSpeedMPH,WindSpeedGustMPH,Humidity,HourlyPrecipIn,Conditions,Clouds,dailyrainin,SoftwareType,DateUTC
2013-05-15 00:10:00,60.0,49.0,30.08,South,179,4.0,12.0,68,0.00,,,0.00,weatherlink.com 1.10,2013-05-15 04:10:00,
2013-05-15 00:25:00,60.1,50.0,30.08,South,173,7.0,11.0,69,0.00,,,0.00,weatherlink.com 1.10,2013-05-15 04:25:00,
2013-05-15 00:40:00,59.7,50.0,30.07,SSE,160,8.0,12.0,70,0.00,,,0.00,weatherlink.com 1.10,2013-05-15 04:40:00,
2013-05-15 00:55:00,59.7,51.0,30.07,SSW,193,11.0,13.0,72,0.00,,,0.00,weatherlink.com 1.10,2013-05-15 04:55:00,
2013-05-15 01:10:00,59.8,52.0,30.06,South,181,10.0,12.0,74,0.00,,,0.00,weatherlink.com 1.10,2013-05-15 05:10:00,
2013-05-15 01:25:00,59.7,52.0,30.06,South,191,11.0,13.0,75,0.00,,,0.00,weatherlink.com 1.10,2013-05-15 05:25:00,
2013-05-15 01:40:00,59.7,53.0,30.05,SSE,155,9.0,13.0,78,0.00,,,0.00,weatherlink.com 1.10,2013-05-15 05:40:00,
2013-05-15 01:55:00,59.9,54.0,30.05,SSE,151,9.0,13.0,81,0.00,,,0.00,weatherlink.com 1.10,2013-05-15 05:55:00,
2013-05-15 02:10:00,59.9,55.0,30.04,SE,133,9.0,12.0,83,0.00,,,0.00,weatherlink.com 1.10,2013-05-15 06:10:00,
2013-05-15 02:25:00,59.8,55.0,30.04,South,174,9.0,11.0,83,0.00,,,0.00,weatherlink.com 1.10,2013-05-15 06:25:00,
2013-05-15 02:40:00,59.6,54.0,30.03,South,181,7.0,17.0,83,0.00,,,0.00,weatherlink.com 1.10,2013-05-15 06:40:00,
2013-05-15 02:55:00,59.5,54.0,30.03,SSE,163,10.0,17.0,82,0.00,,,0.00,weatherlink.com 1.10,2013-05-15 06:55:00,
2013-05-15 03:10:00,59.5,54.0,30.02,SSE,155,10.0,16.0,81,0.00,,,0.00,weatherlink.com 1.10,2013-05-15 07:10:00,
2013-05-15 03:25:00,59.5,54.0,30.02,SE,141,8.0,11.0,82,0.00,,,0.00,weatherlink.com 1.10,2013-05-15 07:25:00,
2013-05-15 03:40:00,58.9,53.0,30.01,SE,143,11.0,14.0,82,0.00,,,0.00,weatherlink.com 1.10,2013-05-15 07:40:00,
2013-05-15 03:55:00,58.4,53.0,30.01,South,183,9.0,13.0,82,0.00,,,0.00,weatherlink.com 1.10,2013-05-15 07:55:00,
2013-05-15 04:10:00,58.1,53.0,30.01,SSE,160,8.0,11.0,83,0.00,,,0.00,weatherlink.com 1.10,2013-05-15 08:10:00,
2013-05-15 04:25:00,57.8,53.0,30.01,SSE,158,7.0,13.0,84,0.00,,,0.00,weatherlink.com 1.10,2013-05-15 08:25:00,
2013-05-15 04:40:00,57.5,53.0,30.01,SSE,157,4.0,11.0,85,0.00,,,0.00,weatherlink.com 1.10,2013-05-15 08:40:00,
2013-05-15 04:56:00,57.4,54.0,30.00,South,176,7.0,8.0,87,0.00,,,0.00,weatherlink.com 1.10,2013-05-15 08:56:00,
2013-05-15 05:11:00,57.5,54.0,29.99,SSE,165,6.0,11.0,87,0.00,,,0.00,weatherlink.com 1.10,2013-05-15 09:11:00,
2013-05-15 05:26:00,57.9,54.0,29.99,South,179,6.0,11.0,87,0.00,,,0.00,weatherlink.com 1.10,2013-05-15 09:26:00,
2013-05-15 05:41:00,58.3,55.0,29.98,SE,144,3.0,8.0,87,0.00,,,0.00,weatherlink.com 1.10,2013-05-15 09:41:00,
2013-05-15 05:56:00,58.7,55.0,29.99,SW,221,3.0,8.0,87,0.00,,,0.00,weatherlink.com 1.10,2013-05-15 09:56:00,
2013-05-15 06:11:00,59.0,55.0,29.97,SSW,194,2.0,8.0,87,0.00,,,0.00,weatherlink.com 1.10,2013-05-15 10:11:00,
2013-05-15 06:26:00,59.1,54.0,29.98,WSW,239,0.0,5.0,82,0.00,,,0.00,weatherlink.com 1.10,2013-05-15 10:26:00,
2013-05-15 06:41:00,59.8,51.0,29.98,SW,222,2.0,5.0,73,0.00,,,0.00,weatherlink.com 1.10,2013-05-15 10:41:00,
2013-05-15 06:56:00,60.1,50.0,29.99,WSW,249,2.0,6.0,70,0.00,,,0.00,weatherlink.com 1.10,2013-05-15 10:56:00,
2013-05-15 07:26:00,60.6,49.0,29.98,SW,218,0.0,2.0,66,0.00,,,0.00,weatherlink.com 1.10,2013-05-15 11:26:00,
2013-05-15 07:41:00,61.2,49.0,29.97,SSW,194,2.0,7.0,65,0.00,,,0.00,weatherlink.com 1.10,2013-05-15 11:41:00,
2013-05-15 08:11:00,61.8,48.0,29.96,SW,231,8.0,10.0,62,0.00,,,0.00,weatherlink.com 1.10,2013-05-15 12:11:00,
2013-05-15 08:56:00,62.5,49.0,29.96,West,276,4.0,6.0,61,0.00,,,0.00,weatherlink.com 1.10,2013-05-15 12:56:00,
2013-05-15 09:11:00,62.4,48.0,29.96,West,280,3.0,11.0,60,0.00,,,0.00,weatherlink.com 1.10,2013-05-15 13:11:00,
2013-05-15 09:26:00,62.1,48.0,29.95,West,262,3.0,8.0,61,0.00,,,0.00,weatherlink.com 1.10,2013-05-15 13:26:00,
2013-05-15 09:41:00,62.4,49.0,29.97,WNW,290,5.0,5.0,63,0.00,,,0.00,weatherlink.com 1.10,2013-05-15 13:41:00,
2013-05-15 09:56:00,63.0,49.0,29.97,SW,234,2.0,6.0,61,0.00,,,0.00,weatherlink.com 1.10,2013-05-15 13:56:00,
2013-05-15 10:11:00,62.5,50.0,29.95,SW,221,1.0,6.0,63,0.00,,,0.00,weatherlink.com 1.10,2013-05-15 14:11:00,
2013-05-15 10:26:00,62.1,51.0,29.95,WSW,257,2.0,5.0,67,0.00,,,0.00,weatherlink.com 1.10,2013-05-15 14:26:00,
2013-05-15 10:41:00,62.6,51.0,29.95,SW,218,2.0,5.0,67,0.00,,,0.00,weatherlink.com 1.10,2013-05-15 14:41:00,
2013-05-15 10:56:00,63.5,51.0,29.94,South,186,5.0,9.0,64,0.00,,,0.00,weatherlink.com 1.10,2013-05-15 14:56:00,
2013-05-15 11:11:00,64.0,51.0,29.92,WSW,252,4.0,7.0,63,0.00,,,0.00,weatherlink.com 1.10,2013-05-15 15:11:00,
2013-05-15 11:26:00,64.9,52.0,29.91,SSW,209,4.0,11.0,64,0.00,,,0.00,weatherlink.com 1.10,2013-05-15 15:26:00,
2013-05-15 11:41:00,65.4,52.0,29.90,WSW,239,5.0,12.0,63,0.00,,,0.00,weatherlink.com 1.10,2013-05-15 15:41:00,
2013-05-15 11:56:00,65.8,53.0,29.90,SW,218,3.0,9.0,64,0.00,,,0.00,weatherlink.com 1.10,2013-05-15 15:56:00,
2013-05-15 12:11:00,66.9,54.0,29.88,WSW,255,4.0,14.0,63,0.00,,,0.00,weatherlink.com 1.10,2013-05-15 16:11:00,
2013-05-15 12:26:00,68.2,55.0,29.89,West,273,6.0,10.0,62,0.00,,,0.00,weatherlink.com 1.10,2013-05-15 16:26:00,
2013-05-15 12:41:00,69.4,55.0,29.90,WNW,283,4.0,6.0,61,0.00,,,0.00,weatherlink.com 1.10,2013-05-15 16:41:00,
2013-05-15 13:12:00,71.5,56.0,29.89,South,172,5.0,8.0,59,0.00,,,0.00,weatherlink.com 1.10,2013-05-15 17:12:00,
2013-05-15 13:27:00,72.5,57.0,29.88,SW,232,7.0,8.0,59,0.00,,,0.00,weatherlink.com 1.10,2013-05-15 17:27:00,
2013-05-15 13:42:00,70.8,58.0,29.86,SSE,160,9.0,14.0,64,0.00,,,0.00,weatherlink.com 1.10,2013-05-15 17:42:00,
2013-05-15 13:57:00,69.4,57.0,29.83,South,175,13.0,18.0,65,0.00,,,0.00,weatherlink.com 1.10,2013-05-15 17:57:00,
2013-05-15 14:12:00,69.4,58.0,29.84,South,169,7.0,14.0,67,0.00,,,0.00,weatherlink.com 1.10,2013-05-15 18:12:00,
2013-05-15 14:42:00,68.9,58.0,29.87,East,99,8.0,8.0,68,0.00,,,0.00,weatherlink.com 1.10,2013-05-15 18:42:00,
2013-05-15 14:57:00,69.1,59.0,29.86,East,99,8.0,8.0,70,0.00,,,0.00,weatherlink.com 1.10,2013-05-15 18:57:00,
2013-05-15 15:12:00,71.0,59.0,29.85,SE,141,4.0,9.0,66,0.00,,,0.00,weatherlink.com 1.10,2013-05-15 19:12:00,
2013-05-15 15:42:00,71.3,58.0,29.83,SSE,163,8.0,11.0,64,0.00,,,0.00,weatherlink.com 1.10,2013-05-15 19:42:00,
2013-05-15 15:57:00,72.7,59.0,29.82,SSE,152,8.0,11.0,62,0.00,,,0.00,weatherlink.com 1.10,2013-05-15 19:57:00,
2013-05-15 16:42:00,74.2,60.0,29.76,SSW,204,13.0,16.0,62,0.00,,,0.00,weatherlink.com 1.10,2013-05-15 20:42:00,
2013-05-15 16:57:00,73.9,60.0,29.76,South,177,8.0,16.0,63,0.00,,,0.00,weatherlink.com 1.10,2013-05-15 20:57:00,
2013-05-15 17:12:00,74.2,62.0,29.75,SW,217,11.0,13.0,65,0.00,,,0.00,weatherlink.com 1.10,2013-05-15 21:12:00,
2013-05-15 17:27:00,74.3,62.0,29.73,SW,218,10.0,16.0,65,0.00,,,0.00,weatherlink.com 1.10,2013-05-15 21:27:00,
2013-05-15 17:42:00,73.7,62.0,29.72,SSW,197,11.0,19.0,66,0.00,,,0.00,weatherlink.com 1.10,2013-05-15 21:42:00,
2013-05-15 17:57:00,73.4,62.0,29.71,South,172,8.0,18.0,68,0.00,,,0.00,weatherlink.com 1.10,2013-05-15 21:57:00,
2013-05-15 18:12:00,72.5,63.0,29.71,SSW,197,6.0,16.0,71,0.00,,,0.00,weatherlink.com 1.10,2013-05-15 22:12:00,
2013-05-15 18:28:00,71.2,63.0,29.71,SW,224,6.0,10.0,75,0.00,,,0.00,weatherlink.com 1.10,2013-05-15 22:28:00,
2013-05-15 18:43:00,71.3,63.0,29.70,SSW,200,5.0,8.0,76,0.00,,,0.00,weatherlink.com 1.10,2013-05-15 22:43:00,
2013-05-15 19:28:00,71.1,64.0,29.71,WSW,243,1.0,2.0,78,0.00,,,0.00,weatherlink.com 1.10,2013-05-15 23:28:00,
2013-05-15 20:43:00,68.7,64.0,29.73,NE,52,0.0,0.0,86,0.00,,,0.00,weatherlink.com 1.10,2013-05-16 00:43:00,
2013-05-15 20:58:00,68.6,64.0,29.73,NE,52,0.0,0.0,86,0.00,,,0.00,weatherlink.com 1.10,2013-05-16 00:58:00,
2013-05-15 21:13:00,68.5,65.0,29.73,NE,52,0.0,1.0,88,0.00,,,0.00,weatherlink.com 1.10,2013-05-16 01:13:00,
2013-05-15 21:28:00,68.4,64.0,29.74,NE,53,0.0,0.0,87,0.00,,,0.00,weatherlink.com 1.10,2013-05-16 01:28:00,
2013-05-15 21:43:00,70.7,64.0,29.75,SSW,212,2.0,5.0,80,0.00,,,0.00,weatherlink.com 1.10,2013-05-16 01:43:00,
2013-05-15 21:58:00,75.6,64.0,29.75,SW,226,3.0,5.0,68,0.00,,,0.00,weatherlink.com 1.10,2013-05-16 01:58:00,
2013-05-15 22:13:00,77.7,65.0,29.75,WSW,249,2.0,7.0,64,0.00,,,0.00,weatherlink.com 1.10,2013-05-16 02:13:00,
2013-05-15 22:28:00,78.5,64.0,29.75,West,276,4.0,7.0,62,0.00,,,0.00,weatherlink.com 1.10,2013-05-16 02:28:00,
2013-05-15 22:43:00,78.6,64.0,29.75,West,278,2.0,8.0,62,0.00,,,0.00,weatherlink.com 1.10,2013-05-16 02:43:00,
2013-05-15 22:58:00,78.6,64.0,29.75,West,277,3.0,9.0,62,0.00,,,0.00,weatherlink.com 1.10,2013-05-16 02:58:00,
2013-05-15 23:13:00,78.5,64.0,29.75,West,270,5.0,8.0,62,0.00,,,0.00,weatherlink.com 1.10,2013-05-16 03:13:00,
2013-05-15 23:28:00,78.4,65.0,29.75,West,277,6.0,7.0,63,0.00,,,0.00,weatherlink.com 1.10,2013-05-16 03:28:00,
2013-05-15 23:43:00,78.1,65.0,29.75,West,268,0.0,10.0,64,0.00,,,0.00,weatherlink.com 1.10,2013-05-16 03:43:00,
2013-05-15 23:58:00,77.9,65.0,29.76,West,260,2.0,8.0,64,0.00,,,0.00,weatherlink.com 1.10,2013-05-16 03:58:00,